createdAt,value
2022-11-16T05:23:48.410Z,153.75
2022-11-16T05:26:52.483Z,143.48
2022-11-16T05:29:55.773Z,148.20
2022-11-16T05:32:58.744Z,132.10
2022-11-16T05:36:01.671Z,131.20
2022-11-16T05:39:05.310Z,109.82
2022-11-16T05:42:09.505Z,117.28
2022-11-16T05:45:14.899Z,101.50
2022-11-16T05:48:21.032Z,97.60
2022-11-16T05:51:24.167Z,109.53
2022-11-16T05:54:27.431Z,96.45
2022-11-16T05:57:30.590Z,90.38
2022-11-16T06:00:33.064Z,113.07
2022-11-16T06:03:36.458Z,104.78
2022-11-16T06:06:39.557Z,102.97
2022-11-16T06:09:43.823Z,99.30
2022-11-16T06:12:47.358Z,100.32
2022-11-16T06:15:50.336Z,88.68
2022-11-16T06:18:53.878Z,98.05
2022-11-16T06:21:57.202Z,96.72
2022-11-16T06:25:01.032Z,88.15
2022-11-16T06:28:07.878Z,86.28
2022-11-16T06:31:11.429Z,98.00
2022-11-16T06:34:15.417Z,93.43
2022-11-16T06:37:18.881Z,88.72
2022-11-16T08:00:51.161Z,96.72
2022-11-16T08:18:47.934Z,102.15
2022-11-16T08:21:51.197Z,94.55
2022-11-16T08:24:55.211Z,99.80
2022-11-16T08:27:58.457Z,99.00
2022-11-16T08:31:14.568Z,99.28
2022-11-16T09:20:11.897Z,91.03
2022-11-16T09:23:14.979Z,94.97
2022-11-16T10:08:45.644Z,89.47
2022-11-16T11:36:26.827Z,63.17
2022-11-16T13:24:22.403Z,49.80
2022-11-16T13:31:14.447Z,53.80
2022-11-16T13:34:27.136Z,57.60
2022-11-16T13:37:38.866Z,53.63
2022-11-16T13:40:43.362Z,50.72
2022-11-16T14:18:20.966Z,47.65
2022-11-16T14:21:51.927Z,49.08
2022-11-16T14:43:41.493Z,53.20
2022-11-16T14:46:44.884Z,49.72
2022-11-16T14:49:48.905Z,50.83
2022-11-16T14:52:57.227Z,47.05
2022-11-16T14:56:08.969Z,47.40
2022-11-16T14:59:18.861Z,51.08
2022-11-16T15:02:24.481Z,53.78
2022-11-16T15:05:29.663Z,51.95
2022-11-16T15:08:48.848Z,48.40
2022-11-16T15:12:13.780Z,49.92
2022-11-16T15:15:21.214Z,51.37
2022-11-16T15:18:23.975Z,51.35
2022-11-16T15:21:26.856Z,52.33
2022-11-16T15:24:33.789Z,48.50
2022-11-16T15:35:05.972Z,49.15
2022-11-16T15:38:19.189Z,52.65
2022-11-16T15:41:24.164Z,44.65
2022-11-16T15:44:27.761Z,47.05
2022-11-16T15:47:30.436Z,48.58
2022-11-16T15:50:33.408Z,46.45
2022-11-16T15:53:47.091Z,45.28
2022-11-16T15:57:12.089Z,42.33
2022-11-16T16:04:15.361Z,41.83
2022-11-16T16:07:41.886Z,43.60
2022-11-16T16:10:44.338Z,43.15
2022-11-16T16:14:04.178Z,45.85
2022-11-16T16:17:06.659Z,46.08
2022-11-16T16:20:18.334Z,42.70
2022-11-16T16:23:25.187Z,48.97
2022-11-16T16:26:27.844Z,49.00
2022-11-16T16:29:30.296Z,46.28
